Time;durP1;ratioP1;P1;durP2;ratioP2;P2;SDS_P1;SDS_P2;PMS_P1;PMS_P2;Temp;Humidity;BMP_temperature;BMP_pressure;BME280_temperature;BME280_humidity;BME280_pressure;Samples;Min_cycle;Max_cycle;Signal;HPM_P1;HPM_P2
2023/02/26 00:02:03;;;;;;;7.72;2.60;;;1.60;99.90;;;;;;5043080;28;20052;-43
2023/02/26 00:04:28;;;;;;;7.72;2.63;;;1.50;99.90;;;;;;5060693;28;20032;-42
2023/02/26 00:06:54;;;;;;;7.93;2.33;;;1.40;99.90;;;;;;5062981;28;20494;-43
2023/02/26 00:09:21;;;;;;;11.32;4.28;;;1.40;99.90;;;;;;5049985;28;20023;-43
2023/02/26 00:11:47;;;;;;;10.07;2.50;;;1.30;99.90;;;;;;5063788;28;20025;-43
2023/02/26 00:14:14;;;;;;;6.43;2.60;;;1.30;99.90;;;;;;5063350;28;20028;-43
2023/02/26 00:16:41;;;;;;;6.65;2.58;;;1.30;99.90;;;;;;5061924;28;20048;-43
2023/02/26 00:19:12;;;;;;;6.82;2.92;;;1.30;99.90;;;;;;5063156;28;20035;-42
2023/02/26 00:21:39;;;;;;;8.03;2.97;;;1.30;99.90;;;;;;5062420;28;20039;-43
2023/02/26 00:24:05;;;;;;;8.70;2.47;;;1.20;99.90;;;;;;5062881;28;20041;-43
2023/02/26 00:26:32;;;;;;;6.32;2.60;;;1.20;99.90;;;;;;5063535;28;20116;-43
2023/02/26 00:29:01;;;;;;;8.02;2.30;;;1.20;99.90;;;;;;5055560;28;20103;-43
2023/02/26 00:31:30;;;;;;;4.95;2.17;;;1.20;99.90;;;;;;5057594;28;20460;-44
2023/02/26 00:33:56;;;;;;;4.88;2.40;;;1.20;99.90;;;;;;5062800;28;20020;-42
2023/02/26 00:36:29;;;;;;;7.13;2.15;;;1.20;99.90;;;;;;5062169;28;20761;-44
2023/02/26 00:39:32;;;;;;;7.70;2.13;;;1.20;99.90;;;;;;5063070;28;20440;-42
2023/02/26 00:41:57;;;;;;;7.03;2.40;;;1.20;99.90;;;;;;5062541;28;20890;-42
2023/02/26 00:44:23;;;;;;;6.55;2.35;;;1.20;99.90;;;;;;5055215;28;20041;-42
2023/02/26 00:46:59;;;;;;;8.13;2.58;;;1.20;99.90;;;;;;5056401;28;20070;-42
2023/02/26 00:49:48;;;;;;;5.00;2.20;;;1.20;99.90;;;;;;5057927;28;20024;-42
2023/02/26 00:52:27;;;;;;;4.88;1.85;;;1.10;99.90;;;;;;5058355;28;20036;-42
2023/02/26 00:54:53;;;;;;;6.40;2.10;;;1.10;99.90;;;;;;5062897;28;20035;-43
2023/02/26 00:57:18;;;;;;;4.82;2.10;;;1.10;99.90;;;;;;5062605;28;20024;-42
2023/02/26 00:59:44;;;;;;;5.20;1.95;;;1.00;99.90;;;;;;5057280;28;20112;-43
2023/02/26 01:02:09;;;;;;;3.65;1.98;;;1.00;99.90;;;;;;5054404;28;20024;-43
2023/02/26 01:04:35;;;;;;;8.88;2.22;;;1.00;99.90;;;;;;5059166;28;20032;-43
2023/02/26 01:07:01;;;;;;;6.20;1.85;;;1.00;99.90;;;;;;5051549;28;20020;-43
2023/02/26 01:09:36;;;;;;;7.25;2.00;;;0.90;99.90;;;;;;5062488;28;20028;-43
2023/02/26 01:12:08;;;;;;;6.53;2.03;;;0.90;99.90;;;;;;5061517;28;20020;-43
2023/02/26 01:14:34;;;;;;;7.95;2.03;;;0.90;99.90;;;;;;5060915;28;20464;-43
2023/02/26 01:17:30;;;;;;;5.75;1.80;;;0.90;99.90;;;;;;5062030;28;20017;-43
2023/02/26 01:20:35;;;;;;;6.22;2.22;;;0.90;99.90;;;;;;5060009;28;20373;-43
2023/02/26 01:23:05;;;;;;;9.55;2.22;;;0.90;99.90;;;;;;5034144;28;20044;-43
2023/02/26 01:25:45;;;;;;;4.03;1.58;;;0.90;99.90;;;;;;5060595;28;20175;-43
2023/02/26 01:28:11;;;;;;;6.10;1.80;;;0.90;99.90;;;;;;5062032;28;20131;-44
2023/02/26 01:30:37;;;;;;;5.90;1.77;;;0.90;99.90;;;;;;5061518;28;20021;-43
2023/02/26 01:33:27;;;;;;;6.20;1.60;;;0.90;99.90;;;;;;5049659;28;20051;-43
2023/02/26 01:36:00;;;;;;;4.18;1.75;;;0.90;99.90;;;;;;5045627;28;20031;-43
2023/02/26 01:38:43;;;;;;;4.55;1.60;;;0.80;99.90;;;;;;5062077;28;20032;-43
2023/02/26 01:41:34;;;;;;;2.95;1.60;;;0.80;99.90;;;;;;5060954;28;20012;-43
2023/02/26 01:44:25;;;;;;;6.47;1.90;;;0.80;99.90;;;;;;5061685;28;20082;-43
2023/02/26 01:47:15;;;;;;;8.10;2.05;;;0.80;99.90;;;;;;5060252;28;20044;-43
2023/02/26 01:49:44;;;;;;;8.07;1.80;;;0.70;99.90;;;;;;5041491;28;20041;-43
2023/02/26 01:52:31;;;;;;;6.22;1.83;;;0.70;99.90;;;;;;5056404;28;20137;-48
2023/02/26 01:54:56;;;;;;;6.70;2.05;;;0.70;99.90;;;;;;5040367;28;20153;-43
2023/02/26 01:57:22;;;;;;;3.53;1.90;;;0.60;99.90;;;;;;5055626;28;20028;-44
2023/02/26 01:59:50;;;;;;;4.18;2.05;;;0.60;99.90;;;;;;5060430;28;20123;-43
2023/02/26 02:02:23;;;;;;;6.60;2.47;;;0.60;99.90;;;;;;5060041;28;20490;-43
2023/02/26 02:04:49;;;;;;;;;;;0.60;99.90;;;;;;5061434;28;20041;-44
2023/02/26 02:07:18;;;;;;;5.18;1.70;;;0.50;99.90;;;;;;5060530;28;19916;-44
2023/02/26 02:09:43;;;;;;;8.82;2.40;;;0.50;99.90;;;;;;5060251;28;20021;-43
2023/02/26 02:12:20;;;;;;;8.68;2.13;;;0.40;99.90;;;;;;5056236;28;20032;-43
2023/02/26 02:14:58;;;;;;;7.35;2.28;;;0.40;99.90;;;;;;5054115;28;20044;-44
2023/02/26 02:17:50;;;;;;;6.57;1.73;;;0.40;99.90;;;;;;5056506;28;20032;-42
2023/02/26 02:20:21;;;;;;;4.15;1.90;;;0.40;99.90;;;;;;5058080;28;20028;-44
2023/02/26 02:23:20;;;;;;;4.63;1.80;;;0.40;99.90;;;;;;5052930;28;20032;-42
2023/02/26 02:26:08;;;;;;;8.10;2.03;;;0.30;99.90;;;;;;5060410;28;20459;-43
2023/02/26 02:28:53;;;;;;;5.47;2.25;;;0.30;99.90;;;;;;5048270;28;20063;-43
2023/02/26 02:31:54;;;;;;;7.77;2.13;;;0.30;99.90;;;;;;5040913;28;20095;-43
2023/02/26 02:34:28;;;;;;;6.85;2.00;;;0.20;99.90;;;;;;5016827;28;20037;-43
2023/02/26 02:36:59;;;;;;;9.35;2.10;;;0.20;99.90;;;;;;5060601;28;20101;-43
2023/02/26 02:39:28;;;;;;;8.10;2.38;;;0.20;99.90;;;;;;5059491;28;20074;-43
2023/02/26 02:42:08;;;;;;;4.57;1.67;;;0.10;99.90;;;;;;5060446;28;20502;-43
2023/02/26 02:44:38;;;;;;;7.97;1.95;;;0.10;99.90;;;;;;5059464;28;20039;-43
2023/02/26 02:47:05;;;;;;;3.20;1.58;;;0.10;99.90;;;;;;5060626;28;20116;-43
2023/02/26 02:49:40;;;;;;;6.50;2.53;;;0.10;99.90;;;;;;5059652;28;20020;-43
2023/02/26 02:52:22;;;;;;;4.53;1.83;;;0.10;99.90;;;;;;5061404;28;20099;-43
2023/02/26 02:55:11;;;;;;;4.90;1.67;;;0.10;99.90;;;;;;5060498;28;20040;-44
2023/02/26 02:57:43;;;;;;;4.72;1.60;;;0.10;99.90;;;;;;5059983;28;20024;-44
2023/02/26 03:00:11;;;;;;;6.55;1.50;;;0.00;99.90;;;;;;5059962;28;20035;-43
2023/02/26 03:02:49;;;;;;;4.05;1.58;;;0.00;99.90;;;;;;5059994;28;20552;-43
2023/02/26 03:05:20;;;;;;;4.63;1.57;;;0.00;99.90;;;;;;5059581;28;20037;-43
2023/02/26 03:07:52;;;;;;;7.15;1.85;;;0.00;99.90;;;;;;5060548;28;20035;-43
2023/02/26 03:10:21;;;;;;;3.97;1.50;;;0.00;99.90;;;;;;5059590;28;20102;-43
2023/02/26 03:12:47;;;;;;;6.40;1.60;;;-0.10;99.90;;;;;;5060409;28;20032;-43
2023/02/26 03:15:15;;;;;;;7.10;1.63;;;-0.10;99.90;;;;;;5060717;28;20045;-43
2023/02/26 03:18:09;;;;;;;2.88;1.48;;;-0.10;99.90;;;;;;5060351;28;20032;-43
2023/02/26 03:20:46;;;;;;;4.80;1.60;;;-0.10;99.90;;;;;;5059845;28;20410;-42
2023/02/26 03:23:22;;;;;;;3.37;1.40;;;-0.10;99.90;;;;;;5060605;28;20137;-42
2023/02/26 03:26:01;;;;;;;5.07;1.35;;;-0.10;99.90;;;;;;5046403;28;20041;-43
2023/02/26 03:28:38;;;;;;;5.13;1.30;;;-0.10;99.90;;;;;;5061203;28;20028;-44
2023/02/26 03:31:19;;;;;;;6.90;1.70;;;-0.20;99.90;;;;;;5060196;28;20021;-42
2023/02/26 03:34:26;;;;;;;4.88;1.80;;;-0.20;99.90;;;;;;5058794;28;20544;-43
2023/02/26 03:37:16;;;;;;;3.87;1.40;;;-0.20;99.90;;;;;;5055303;28;20036;-43
2023/02/26 03:39:50;;;;;;;3.00;1.30;;;-0.20;99.90;;;;;;5057085;28;20658;-43
2023/02/26 03:42:34;;;;;;;4.70;1.42;;;-0.20;99.90;;;;;;5053404;28;20082;-43
2023/02/26 03:45:06;;;;;;;8.63;1.63;;;-0.20;99.90;;;;;;5063720;28;20044;-44
2023/02/26 03:47:33;;;;;;;4.85;1.20;;;-0.20;99.90;;;;;;5062829;28;20384;-44
2023/02/26 03:50:11;;;;;;;3.75;0.98;;;-0.20;99.90;;;;;;5063443;28;20120;-43
2023/02/26 03:52:43;;;;;;;3.67;1.13;;;-0.20;99.90;;;;;;5054545;28;20025;-44
2023/02/26 03:55:18;;;;;;;4.70;1.48;;;-0.20;99.90;;;;;;5064507;28;20017;-44
2023/02/26 03:57:44;;;;;;;5.50;1.58;;;-0.20;99.90;;;;;;5053453;28;20043;-43
2023/02/26 04:00:11;;;;;;;3.20;1.25;;;-0.20;99.90;;;;;;5062531;28;20024;-43
2023/02/26 04:02:59;;;;;;;4.53;1.25;;;-0.30;99.90;;;;;;5063542;28;20044;-42
2023/02/26 04:05:38;;;;;;;4.90;1.25;;;-0.30;99.90;;;;;;5063494;28;20032;-43
2023/02/26 04:08:03;;;;;;;2.05;1.20;;;-0.30;99.90;;;;;;5052808;28;20123;-43
2023/02/26 04:10:44;;;;;;;4.80;1.63;;;-0.30;99.90;;;;;;5063562;28;20020;-43
2023/02/26 04:13:18;;;;;;;5.35;1.95;;;-0.30;99.90;;;;;;5053103;28;20170;-43
2023/02/26 04:15:44;;;;;;;3.60;1.23;;;-0.40;99.90;;;;;;5061990;28;20168;-43
2023/02/26 04:18:16;;;;;;;3.72;1.27;;;-0.40;99.90;;;;;;5063919;28;20807;-43
2023/02/26 04:20:41;;;;;;;6.38;1.75;;;-0.40;99.90;;;;;;5062596;28;20105;-43
2023/02/26 04:23:07;;;;;;;5.10;1.70;;;-0.40;99.90;;;;;;5063088;28;20012;-42
2023/02/26 04:25:32;;;;;;;4.68;1.35;;;-0.40;99.90;;;;;;5063479;28;20143;-43
2023/02/26 04:27:58;;;;;;;4.03;1.38;;;-0.40;99.90;;;;;;5061967;28;20134;-43
2023/02/26 04:30:24;;;;;;;2.90;1.20;;;-0.40;99.90;;;;;;5063361;28;20128;-42
2023/02/26 04:32:49;;;;;;;4.55;1.55;;;-0.40;99.90;;;;;;5061791;28;20063;-43
2023/02/26 04:35:15;;;;;;;4.13;1.20;;;-0.40;99.90;;;;;;5062445;28;20114;-43
2023/02/26 04:37:40;;;;;;;5.60;1.20;;;-0.50;99.90;;;;;;5062041;28;20024;-43
2023/02/26 04:40:06;;;;;;;6.30;1.53;;;-0.40;99.90;;;;;;5062336;28;20028;-43
2023/02/26 04:42:32;;;;;;;5.80;1.50;;;-0.40;99.90;;;;;;5062145;28;20126;-44
2023/02/26 04:44:57;;;;;;;4.05;1.20;;;-0.50;99.90;;;;;;5046226;28;20771;-44
2023/02/26 04:47:23;;;;;;;7.85;1.35;;;-0.50;99.90;;;;;;5047304;28;20106;-44
2023/02/26 04:49:49;;;;;;;4.73;1.60;;;-0.50;99.90;;;;;;5048749;28;20037;-44
2023/02/26 04:52:14;;;;;;;5.83;1.10;;;-0.50;99.90;;;;;;5044347;28;20022;-44
2023/02/26 04:54:40;;;;;;;5.03;1.33;;;-0.50;99.90;;;;;;5051539;28;20471;-44
2023/02/26 04:57:06;;;;;;;4.97;1.10;;;-0.40;99.90;;;;;;5043367;28;20017;-44
2023/02/26 04:59:31;;;;;;;3.50;1.10;;;-0.50;99.90;;;;;;5053612;28;20024;-44
2023/02/26 05:02:00;;;;;;;3.03;1.20;;;-0.40;99.90;;;;;;5043191;28;20029;-44
2023/02/26 05:04:25;;;;;;;3.73;1.43;;;-0.40;99.90;;;;;;5058865;28;20031;-43
2023/02/26 05:06:51;;;;;;;4.43;1.67;;;-0.40;99.90;;;;;;5062403;28;20041;-43
2023/02/26 05:09:16;;;;;;;4.53;1.63;;;-0.40;99.90;;;;;;5049468;28;20029;-43
2023/02/26 05:11:42;;;;;;;11.00;1.47;;;-0.40;99.90;;;;;;5061138;28;20029;-43
2023/02/26 05:14:07;;;;;;;5.67;1.47;;;-0.40;99.90;;;;;;5061807;28;20033;-44
2023/02/26 05:16:36;;;;;;;4.17;1.40;;;-0.40;99.90;;;;;;5042731;28;20036;-43
2023/02/26 05:19:01;;;;;;;2.40;1.00;;;-0.40;99.90;;;;;;5056768;28;20024;-43
2023/02/26 05:21:27;;;;;;;4.73;1.40;;;-0.40;99.90;;;;;;5062021;28;20999;-43
2023/02/26 05:23:52;;;;;;;6.77;1.37;;;-0.40;99.90;;;;;;5053806;28;20494;-43
2023/02/26 05:26:18;;;;;;;4.93;1.47;;;-0.40;99.90;;;;;;5056625;28;20055;-43
2023/02/26 05:28:50;;;;;;;5.60;1.43;;;-0.40;99.90;;;;;;5056693;28;20017;-44
2023/02/26 05:31:15;;;;;;;1.43;0.93;;;-0.40;99.90;;;;;;5054485;28;20039;-44
2023/02/26 05:33:41;;;;;;;4.35;1.10;;;-0.40;99.90;;;;;;5061136;28;20025;-44
2023/02/26 05:36:07;;;;;;;4.63;1.43;;;-0.40;99.90;;;;;;5061828;28;20028;-43
2023/02/26 05:38:33;;;;;;;3.42;1.20;;;-0.50;99.90;;;;;;5059864;28;20510;-44
2023/02/26 05:41:00;;;;;;;3.85;1.27;;;-0.50;99.90;;;;;;5050528;28;20028;-44
2023/02/26 05:43:26;;;;;;;1.43;1.03;;;-0.50;99.90;;;;;;5059776;28;20712;-43
2023/02/26 05:45:52;;;;;;;5.85;1.40;;;-0.50;99.90;;;;;;5049252;28;20040;-43
2023/02/26 05:48:18;;;;;;;7.38;1.83;;;-0.50;99.90;;;;;;5061065;28;20068;-44
2023/02/26 05:50:45;;;;;;;4.00;1.40;;;-0.50;99.90;;;;;;5061422;28;20701;-43
2023/02/26 05:53:11;;;;;;;3.53;1.00;;;-0.50;99.90;;;;;;5061207;28;20032;-42
2023/02/26 05:55:36;;;;;;;6.28;1.50;;;-0.50;99.90;;;;;;5061453;28;20039;-42
2023/02/26 05:58:02;;;;;;;5.77;1.30;;;-0.50;99.90;;;;;;5061796;28;20040;-43
2023/02/26 06:00:27;;;;;;;2.97;1.20;;;-0.50;99.90;;;;;;5061077;28;20031;-43
2023/02/26 06:02:53;;;;;;;6.43;1.00;;;-0.50;99.90;;;;;;5062109;28;20028;-43
2023/02/26 06:05:18;;;;;;;3.40;1.08;;;-0.50;99.90;;;;;;5061441;28;20040;-43
2023/02/26 06:07:44;;;;;;;4.30;1.40;;;-0.50;99.90;;;;;;5060718;28;20082;-43
2023/02/26 06:10:10;;;;;;;3.63;1.00;;;-0.60;99.90;;;;;;5061559;28;20024;-43
2023/02/26 06:12:36;;;;;;;4.57;1.33;;;-0.60;99.90;;;;;;5062116;28;20028;-43
2023/02/26 06:15:03;;;;;;;5.68;1.27;;;-0.60;99.90;;;;;;5057599;28;20075;-43
2023/02/26 06:17:32;;;;;;;2.27;1.30;;;-0.60;99.90;;;;;;5052243;28;20036;-43
2023/02/26 06:19:57;;;;;;;2.67;1.10;;;-0.60;99.90;;;;;;5060829;28;20028;-43
2023/02/26 06:22:23;;;;;;;3.22;1.23;;;-0.50;99.90;;;;;;5049323;28;20028;-43
2023/02/26 06:24:48;;;;;;;5.50;1.17;;;-0.50;99.90;;;;;;5060126;28;20676;-43
2023/02/26 06:27:14;;;;;;;2.70;1.10;;;-0.50;99.90;;;;;;5061186;28;20025;-44
2023/02/26 06:29:40;;;;;;;3.75;1.20;;;-0.50;99.90;;;;;;5060700;28;20052;-42
2023/02/26 06:32:05;;;;;;;7.68;1.73;;;-0.50;99.90;;;;;;5060311;28;20070;-43
2023/02/26 06:34:37;;;;;;;4.28;1.40;;;-0.50;99.90;;;;;;5060986;28;20025;-43
2023/02/26 06:37:09;;;;;;;4.13;1.10;;;-0.50;99.90;;;;;;5048491;28;20055;-43
2023/02/26 06:39:35;;;;;;;5.30;1.10;;;-0.50;99.90;;;;;;5061396;28;20399;-43
2023/02/26 06:42:03;;;;;;;3.78;1.35;;;-0.50;99.90;;;;;;5060109;28;21054;-42
2023/02/26 06:44:29;;;;;;;3.70;1.00;;;-0.50;99.90;;;;;;5041507;28;20037;-43
2023/02/26 06:46:55;;;;;;;6.47;1.67;;;-0.50;99.90;;;;;;5053781;28;20044;-43
2023/02/26 06:49:20;;;;;;;2.47;0.93;;;-0.50;99.90;;;;;;5060218;28;20058;-43
2023/02/26 06:51:46;;;;;;;4.20;1.10;;;-0.50;99.90;;;;;;5060546;28;20070;-43
2023/02/26 06:54:11;;;;;;;6.37;1.20;;;-0.50;99.90;;;;;;5061499;28;20027;-43
2023/02/26 06:56:37;;;;;;;3.00;0.77;;;-0.40;99.90;;;;;;5060767;28;20775;-43
2023/02/26 06:59:03;;;;;;;3.47;1.30;;;-0.40;99.90;;;;;;5061260;28;20028;-43
2023/02/26 07:01:30;;;;;;;4.57;1.55;;;-0.40;99.90;;;;;;5058405;28;20037;-43
2023/02/26 07:03:56;;;;;;;4.18;0.90;;;-0.40;99.90;;;;;;5049028;28;20058;-43
2023/02/26 07:06:25;;;;;;;2.40;1.02;;;-0.40;99.90;;;;;;5057145;28;20052;-43
2023/02/26 07:08:50;;;;;;;6.20;1.40;;;-0.30;99.90;;;;;;5053709;28;20017;-43
2023/02/26 07:11:16;;;;;;;7.47;1.13;;;-0.30;99.90;;;;;;5060113;28;20039;-43
2023/02/26 07:13:41;;;;;;;2.63;1.10;;;-0.30;99.90;;;;;;5056216;28;20163;-43
2023/02/26 07:16:07;;;;;;;1.63;1.15;;;-0.30;99.90;;;;;;5060248;28;20048;-44
2023/02/26 07:18:36;;;;;;;2.08;1.10;;;-0.30;99.90;;;;;;5063960;28;20029;-43
2023/02/26 07:21:06;;;;;;;3.30;1.40;;;-0.20;99.90;;;;;;5065096;28;20032;-43
2023/02/26 07:23:41;;;;;;;5.05;1.20;;;-0.20;99.90;;;;;;5064890;28;20374;-43
2023/02/26 07:26:07;;;;;;;3.67;1.50;;;-0.20;99.90;;;;;;5064498;28;20064;-43
2023/02/26 07:28:33;;;;;;;4.72;1.13;;;-0.10;99.90;;;;;;5064725;28;20070;-43
2023/02/26 07:30:59;;;;;;;4.97;1.05;;;-0.10;99.90;;;;;;5063027;28;20928;-43
2023/02/26 07:33:27;;;;;;;3.78;1.02;;;0.00;99.90;;;;;;5064397;28;20020;-43
2023/02/26 07:35:53;;;;;;;6.57;1.52;;;0.00;99.90;;;;;;5064220;28;20120;-43
2023/02/26 07:38:19;;;;;;;3.90;1.20;;;0.10;99.90;;;;;;5063555;28;20028;-43
2023/02/26 07:40:45;;;;;;;3.42;1.50;;;0.10;99.90;;;;;;5063578;28;20086;-43
2023/02/26 07:43:11;;;;;;;2.97;1.40;;;0.10;99.90;;;;;;5062489;28;20033;-44
2023/02/26 07:45:36;;;;;;;5.75;1.52;;;0.20;99.90;;;;;;5063410;28;20051;-44
2023/02/26 07:48:03;;;;;;;3.77;1.30;;;0.20;99.90;;;;;;5062011;28;20027;-43
2023/02/26 07:50:29;;;;;;;3.85;1.30;;;0.30;99.90;;;;;;5053475;28;20391;-44
2023/02/26 07:52:54;;;;;;;3.33;1.40;;;0.40;99.90;;;;;;5061838;28;20474;-44
2023/02/26 07:55:20;;;;;;;4.60;1.60;;;0.40;99.90;;;;;;5052367;28;20111;-44
2023/02/26 07:57:46;;;;;;;3.28;1.40;;;0.40;99.90;;;;;;5062386;28;20024;-43
2023/02/26 08:00:13;;;;;;;3.25;1.02;;;0.50;99.90;;;;;;5051989;28;20031;-44
2023/02/26 08:02:38;;;;;;;3.42;1.02;;;0.50;99.90;;;;;;5063257;28;20832;-44
2023/02/26 08:05:07;;;;;;;3.45;1.10;;;0.50;99.90;;;;;;5050711;28;20064;-44
2023/02/26 08:07:36;;;;;;;3.33;1.10;;;0.60;99.90;;;;;;5063524;28;20486;-44
2023/02/26 08:10:03;;;;;;;5.28;1.13;;;0.60;99.90;;;;;;5050703;28;20363;-44
2023/02/26 08:12:28;;;;;;;6.82;1.00;;;0.70;99.90;;;;;;5063673;28;20099;-44
2023/02/26 08:14:54;;;;;;;2.28;1.00;;;0.70;99.90;;;;;;5062111;28;20543;-44
2023/02/26 08:17:19;;;;;;;3.58;1.05;;;0.70;99.90;;;;;;5063377;28;20064;-44
2023/02/26 08:19:54;;;;;;;2.33;1.13;;;0.80;99.90;;;;;;5055348;28;20132;-43
2023/02/26 08:22:20;;;;;;;4.10;1.08;;;0.80;99.90;;;;;;5060037;28;20800;-43
2023/02/26 08:24:46;;;;;;;5.35;1.30;;;0.90;99.90;;;;;;5056141;28;20040;-43
2023/02/26 08:27:11;;;;;;;5.97;1.25;;;0.90;99.90;;;;;;5042436;28;20033;-43
2023/02/26 08:29:41;;;;;;;7.53;1.77;;;1.00;99.90;;;;;;5045943;28;20036;-43
2023/02/26 08:32:07;;;;;;;2.65;1.30;;;1.00;99.90;;;;;;5051393;28;20040;-43
2023/02/26 08:34:36;;;;;;;3.35;1.40;;;1.10;99.90;;;;;;5051334;28;20020;-43
2023/02/26 08:37:02;;;;;;;1.70;1.15;;;1.10;99.90;;;;;;5051951;28;20036;-43
2023/02/26 08:39:31;;;;;;;2.65;1.00;;;1.20;99.90;;;;;;5062647;28;20019;-44
2023/02/26 08:41:57;;;;;;;3.78;1.20;;;1.20;99.90;;;;;;5050983;28;20493;-43
2023/02/26 08:44:26;;;;;;;5.07;1.40;;;1.30;99.90;;;;;;5062842;28;20058;-43
2023/02/26 08:46:55;;;;;;;4.18;1.05;;;1.30;99.90;;;;;;5059508;28;20046;-43
2023/02/26 08:49:20;;;;;;;2.33;1.00;;;1.40;99.90;;;;;;5062594;28;20028;-44
2023/02/26 08:51:46;;;;;;;3.13;1.20;;;1.50;99.90;;;;;;5050002;28;20030;-44
2023/02/26 08:54:12;;;;;;;4.78;1.73;;;1.50;99.90;;;;;;5063266;28;20031;-43
2023/02/26 08:56:38;;;;;;;2.33;1.20;;;1.60;99.90;;;;;;5062108;28;20029;-43
2023/02/26 08:59:03;;;;;;;9.85;1.95;;;1.60;99.90;;;;;;5062183;28;20113;-43
2023/02/26 09:01:29;;;;;;;4.97;1.70;;;1.60;99.90;;;;;;5062581;28;20105;-43
2023/02/26 09:03:55;;;;;;;3.38;1.40;;;1.70;99.90;;;;;;5061421;28;20035;-43
2023/02/26 09:06:20;;;;;;;6.85;1.58;;;1.80;99.90;;;;;;5053991;28;20037;-43
2023/02/26 09:08:46;;;;;;;10.02;2.13;;;1.80;99.90;;;;;;5058116;28;20036;-44
2023/02/26 09:11:11;;;;;;;4.95;1.48;;;1.90;99.90;;;;;;5060765;28;20051;-43
2023/02/26 09:13:37;;;;;;;2.20;1.05;;;1.90;99.90;;;;;;5062088;28;20040;-43
2023/02/26 09:16:03;;;;;;;4.32;1.25;;;2.00;99.90;;;;;;5059187;28;20044;-43
2023/02/26 09:18:29;;;;;;;2.97;1.20;;;2.10;99.90;;;;;;5051188;28;20040;-42
2023/02/26 09:20:54;;;;;;;2.72;1.10;;;2.10;99.90;;;;;;5061853;28;20582;-43
2023/02/26 09:23:20;;;;;;;3.83;1.30;;;2.20;99.90;;;;;;5061548;28;20472;-43
2023/02/26 09:25:50;;;;;;;2.88;1.40;;;2.30;99.90;;;;;;5061381;28;20036;-44
2023/02/26 09:28:16;;;;;;;4.20;1.20;;;2.30;99.90;;;;;;5058621;28;20108;-43
2023/02/26 09:30:42;;;;;;;2.30;1.02;;;2.40;99.90;;;;;;5061361;28;20032;-42
2023/02/26 09:33:08;;;;;;;2.13;1.10;;;2.40;99.90;;;;;;5062504;28;20119;-43
2023/02/26 09:35:34;;;;;;;3.08;1.10;;;2.40;99.90;;;;;;5062423;28;20692;-42
2023/02/26 09:37:59;;;;;;;6.20;1.40;;;2.50;99.90;;;;;;5048150;28;20533;-43
2023/02/26 09:40:34;;;;;;;2.30;1.23;;;2.50;99.90;;;;;;5061509;28;20094;-43
2023/02/26 09:43:26;;;;;;;2.65;1.10;;;2.60;99.90;;;;;;5061242;28;20502;-42
2023/02/26 09:45:55;;;;;;;1.95;0.80;;;2.70;99.90;;;;;;5041525;28;20067;-43
2023/02/26 09:48:23;;;;;;;2.42;0.90;;;2.70;99.90;;;;;;5054437;28;20424;-43
2023/02/26 09:50:56;;;;;;;2.38;0.90;;;2.70;99.90;;;;;;5062066;28;20392;-43
2023/02/26 09:53:32;;;;;;;2.17;0.90;;;2.80;99.90;;;;;;5049625;28;20051;-43
2023/02/26 09:56:22;;;;;;;4.40;1.17;;;2.80;99.90;;;;;;5041761;28;20082;-43
2023/02/26 09:58:49;;;;;;;2.78;1.10;;;2.90;99.90;;;;;;5058307;28;20044;-44
2023/02/26 10:01:37;;;;;;;5.47;1.40;;;3.00;99.90;;;;;;5061748;28;20055;-44
2023/02/26 10:04:50;;;;;;;3.50;1.25;;;3.00;99.90;;;;;;5048331;28;20031;-43
2023/02/26 10:07:16;;;;;;;2.72;0.82;;;3.10;99.20;;;;;;5020920;28;20120;-43
2023/02/26 10:09:53;;;;;;;1.58;0.80;;;3.10;99.00;;;;;;5050190;28;20028;-43
2023/02/26 10:12:24;;;;;;;3.38;0.88;;;3.10;98.80;;;;;;5060259;28;20036;-44
2023/02/26 10:15:04;;;;;;;5.15;1.08;;;3.20;98.30;;;;;;5049213;28;20111;-43
2023/02/26 10:17:38;;;;;;;2.45;0.90;;;3.20;97.60;;;;;;5061011;28;20043;-44
2023/02/26 10:20:20;;;;;;;4.70;0.93;;;3.20;97.40;;;;;;5053055;28;20149;-42
2023/02/26 10:23:09;;;;;;;3.72;0.98;;;3.30;97.50;;;;;;5059533;28;20100;-44
2023/02/26 10:25:46;;;;;;;2.55;0.90;;;3.30;97.30;;;;;;5032565;28;20491;-42
2023/02/26 10:28:56;;;;;;;2.72;1.17;;;3.40;97.00;;;;;;5060341;28;20037;-42
2023/02/26 10:31:48;;;;;;;3.22;1.00;;;3.40;96.70;;;;;;5015319;28;20097;-43
2023/02/26 10:34:34;;;;;;;2.42;0.90;;;3.50;96.60;;;;;;5061006;28;20538;-43
2023/02/26 10:37:19;;;;;;;3.88;1.15;;;3.60;96.60;;;;;;5043936;28;20055;-44
2023/02/26 10:40:08;;;;;;;1.90;0.90;;;3.70;96.10;;;;;;5051669;28;20025;-43
2023/02/26 10:42:42;;;;;;;3.75;0.75;;;3.80;95.90;;;;;;5041095;28;20021;-44
2023/02/26 10:45:36;;;;;;;2.22;1.15;;;3.90;95.30;;;;;;5057797;28;20032;-42
2023/02/26 10:48:16;;;;;;;1.73;0.90;;;4.00;95.40;;;;;;5040704;28;20495;-42
2023/02/26 10:50:54;;;;;;;5.57;0.90;;;4.10;95.50;;;;;;5060135;28;20024;-43
2023/02/26 10:53:27;;;;;;;3.30;1.00;;;4.10;95.40;;;;;;5064948;28;20064;-43
2023/02/26 10:56:17;;;;;;;3.13;1.27;;;4.20;95.20;;;;;;5050498;28;20048;-42
2023/02/26 10:58:42;;;;;;;2.97;1.08;;;4.30;94.90;;;;;;5064843;28;20082;-43
2023/02/26 11:01:30;;;;;;;4.28;1.05;;;4.30;94.90;;;;;;5051928;28;20108;-43
2023/02/26 11:03:57;;;;;;;1.27;0.82;;;4.30;94.00;;;;;;5064113;28;20032;-43
2023/02/26 11:06:32;;;;;;;3.17;0.98;;;4.30;93.30;;;;;;5064898;28;20079;-43
2023/02/26 11:08:59;;;;;;;5.30;1.10;;;4.30;93.40;;;;;;5064223;28;20017;-43
2023/02/26 11:11:39;;;;;;;2.58;1.00;;;4.20;93.50;;;;;;5060530;28;20033;-43
2023/02/26 11:14:05;;;;;;;4.85;1.10;;;4.20;93.80;;;;;;5063166;28;20801;-43
2023/02/26 11:16:31;;;;;;;2.45;0.90;;;4.20;93.70;;;;;;5063871;28;20043;-43
2023/02/26 11:18:59;;;;;;;2.55;0.90;;;4.30;93.30;;;;;;5063742;28;20142;-43
2023/02/26 11:21:35;;;;;;;2.28;0.80;;;4.30;93.00;;;;;;5064589;28;20876;-43
2023/02/26 11:24:18;;;;;;;5.18;1.45;;;4.30;92.90;;;;;;5063658;28;20028;-43
2023/02/26 11:26:47;;;;;;;2.03;0.85;;;4.30;92.90;;;;;;5050869;28;20560;-43
2023/02/26 11:29:17;;;;;;;5.53;1.20;;;4.40;93.00;;;;;;5064459;28;20032;-43
2023/02/26 11:31:47;;;;;;;3.88;0.93;;;4.50;92.80;;;;;;5062647;28;20067;-43
2023/02/26 11:34:12;;;;;;;4.95;2.00;;;4.60;92.60;;;;;;5044831;28;20040;-43
2023/02/26 11:36:43;;;;;;;4.00;0.90;;;4.60;92.40;;;;;;5058419;28;20040;-43
2023/02/26 11:39:18;;;;;;;2.75;1.00;;;4.70;92.70;;;;;;5062996;28;20048;-43
2023/02/26 11:41:46;;;;;;;3.00;1.13;;;4.70;92.30;;;;;;5064123;28;20029;-43
2023/02/26 11:44:20;;;;;;;2.33;0.85;;;4.80;92.10;;;;;;5063939;28;20032;-43
2023/02/26 11:46:50;;;;;;;3.78;1.17;;;4.90;92.10;;;;;;5055979;28;20547;-43
2023/02/26 11:49:20;;;;;;;1.70;0.85;;;4.90;91.80;;;;;;5061085;28;20039;-43
2023/02/26 11:52:00;;;;;;;2.40;0.95;;;4.90;91.50;;;;;;5063358;28;20020;-43
2023/02/26 11:54:28;;;;;;;1.52;0.93;;;4.90;91.40;;;;;;5064178;28;20024;-43
2023/02/26 11:57:01;;;;;;;3.38;0.90;;;4.90;91.10;;;;;;5063459;28;20016;-43
2023/02/26 11:59:30;;;;;;;2.78;1.00;;;4.80;91.20;;;;;;5063425;28;20028;-43
2023/02/26 12:02:02;;;;;;;4.22;0.80;;;4.80;90.70;;;;;;5062729;28;20016;-43
2023/02/26 12:04:27;;;;;;;1.65;0.80;;;4.70;90.80;;;;;;5064472;28;20031;-43
2023/02/26 12:06:54;;;;;;;1.10;0.80;;;4.70;90.80;;;;;;5058901;28;20020;-43
2023/02/26 12:09:20;;;;;;;4.32;0.88;;;4.80;91.20;;;;;;5055224;28;20028;-43
2023/02/26 12:11:58;;;;;;;1.65;0.98;;;4.80;91.50;;;;;;5064072;28;20044;-44
2023/02/26 12:14:30;;;;;;;2.28;0.80;;;4.90;91.60;;;;;;5053541;28;20048;-43
2023/02/26 12:17:04;;;;;;;2.35;0.80;;;4.90;91.50;;;;;;5062986;28;20666;-44
2023/02/26 12:19:53;;;;;;;2.40;0.70;;;4.90;90.40;;;;;;5052819;28;20177;-44
2023/02/26 12:22:57;;;;;;;1.88;0.70;;;4.90;90.20;;;;;;5063325;28;20106;-43
2023/02/26 12:25:59;;;;;;;1.73;0.90;;;5.00;90.20;;;;;;5063907;28;20040;-43
2023/02/26 12:28:30;;;;;;;1.95;0.77;;;5.00;90.10;;;;;;5063440;28;20028;-44
2023/02/26 12:31:14;;;;;;;1.65;0.90;;;5.00;89.40;;;;;;5063232;28;20047;-44
2023/02/26 12:33:49;;;;;;;1.60;0.82;;;5.10;89.50;;;;;;5062132;28;20032;-44
2023/02/26 12:36:52;;;;;;;2.38;0.70;;;5.10;89.80;;;;;;5063772;28;20032;-43
2023/02/26 12:39:42;;;;;;;1.85;0.90;;;5.20;90.30;;;;;;5062932;28;20032;-43
2023/02/26 12:42:30;;;;;;;2.95;1.02;;;5.20;90.30;;;;;;5062637;28;20039;-43
2023/02/26 12:45:23;;;;;;;3.05;1.08;;;5.30;90.30;;;;;;5063527;28;20034;-43
2023/02/26 12:48:15;;;;;;;1.63;0.88;;;5.30;90.50;;;;;;5061931;28;20111;-43
2023/02/26 12:50:47;;;;;;;1.17;0.60;;;5.40;90.70;;;;;;5053681;28;20035;-43
2023/02/26 12:54:03;;;;;;;2.10;0.77;;;5.40;90.60;;;;;;5062428;28;20032;-43
2023/02/26 12:56:32;;;;;;;1.73;0.90;;;5.50;90.50;;;;;;5030255;28;20051;-43
2023/02/26 12:59:28;;;;;;;2.78;0.82;;;5.50;90.00;;;;;;5062161;28;20158;-43
2023/02/26 13:02:09;;;;;;;2.47;1.02;;;5.50;89.90;;;;;;5061901;28;20036;-44
2023/02/26 13:04:57;;;;;;;1.73;0.70;;;5.50;89.50;;;;;;5062656;28;20089;-43
2023/02/26 13:07:51;;;;;;;2.58;1.20;;;5.50;89.20;;;;;;5042758;28;20924;-43
2023/02/26 13:10:40;;;;;;;1.77;1.05;;;5.50;88.30;;;;;;5060545;28;20028;-43
2023/02/26 13:13:21;;;;;;;2.47;0.98;;;5.60;87.30;;;;;;5063056;28;20020;-44
2023/02/26 13:16:15;;;;;;;1.73;0.80;;;5.60;88.20;;;;;;5060724;28;20153;-44
2023/02/26 13:19:05;;;;;;;1.70;0.60;;;5.60;88.20;;;;;;5062511;28;20050;-43
2023/02/26 13:21:40;;;;;;;1.50;0.80;;;5.60;88.10;;;;;;5051345;28;20072;-44